Time,TemperatureF,DewpointF,PressureIn,WindDirection,WindDirectionDegrees,WindSpeedMPH,WindSpeedGustMPH,Humidity,HourlyPrecipIn,Conditions,Clouds,dailyrainin,SoftwareType,DateUTC
2013-05-31 00:00:00,76.0,73.0,30.22,ESE,120,11.0,13.0,91,-99.99,,,-99.99,,2013-05-31 04:00:00,
2013-05-31 00:22:00,76.0,73.0,30.22,ESE,120,11.0,13.0,91,-99.99,,,-99.99,,2013-05-31 04:22:00,
2013-05-31 00:32:00,76.0,73.0,30.22,ESE,120,11.0,13.0,91,-99.99,,,-99.99,,2013-05-31 04:32:00,
2013-05-31 00:42:00,76.0,73.0,30.22,ESE,120,11.0,13.0,91,-99.99,,,-99.99,,2013-05-31 04:42:00,
2013-05-31 00:52:00,76.0,73.0,30.22,ESE,120,11.0,13.0,91,-99.99,,,-99.99,,2013-05-31 04:52:00,
2013-05-31 01:00:00,76.0,73.0,30.22,SE,140,8.0,9.0,91,-99.99,,,-99.99,,2013-05-31 05:00:00,
2013-05-31 01:21:00,76.0,73.0,30.22,SE,140,8.0,9.0,91,-99.99,,,-99.99,,2013-05-31 05:21:00,
2013-05-31 01:31:00,76.0,73.0,30.22,SE,140,8.0,9.0,91,-99.99,,,-99.99,,2013-05-31 05:31:00,
2013-05-31 01:41:00,76.0,73.0,30.22,SE,140,8.0,9.0,91,-99.99,,,-99.99,,2013-05-31 05:41:00,
2013-05-31 01:51:00,76.0,73.0,30.22,SE,140,8.0,9.0,91,-99.99,,,-99.99,,2013-05-31 05:51:00,
2013-05-31 02:00:00,75.0,73.0,30.21,SSE,160,6.0,7.0,91,-99.99,,,-99.99,,2013-05-31 06:00:00,
2013-05-31 02:21:00,75.0,73.0,30.21,SSE,160,6.0,7.0,91,-99.99,,,-99.99,,2013-05-31 06:21:00,
2013-05-31 02:31:00,75.0,73.0,30.21,SSE,160,6.0,7.0,91,-99.99,,,-99.99,,2013-05-31 06:31:00,
2013-05-31 02:41:00,75.0,73.0,30.21,SSE,160,6.0,7.0,91,-99.99,,,-99.99,,2013-05-31 06:41:00,
2013-05-31 02:51:00,75.0,73.0,30.21,SSE,160,6.0,7.0,91,-99.99,,,-99.99,,2013-05-31 06:51:00,
2013-05-31 03:00:00,75.0,73.0,30.20,South,170,7.0,8.0,91,-99.99,,,-99.99,,2013-05-31 07:00:00,
2013-05-31 03:21:00,75.0,73.0,30.20,South,170,7.0,8.0,91,-99.99,,,-99.99,,2013-05-31 07:21:00,
2013-05-31 03:31:00,75.0,73.0,30.20,South,170,7.0,8.0,91,-99.99,,,-99.99,,2013-05-31 07:31:00,
2013-05-31 03:41:00,75.0,73.0,30.20,South,170,7.0,8.0,91,-99.99,,,-99.99,,2013-05-31 07:41:00,
2013-05-31 03:52:00,75.0,73.0,30.20,South,170,7.0,8.0,91,-99.99,,,-99.99,,2013-05-31 07:52:00,
2013-05-31 04:00:00,76.0,72.0,30.20,South,170,8.0,9.0,90,-99.99,,,-99.99,,2013-05-31 08:00:00,
2013-05-31 04:21:00,76.0,72.0,30.20,South,170,8.0,9.0,90,-99.99,,,-99.99,,2013-05-31 08:21:00,
2013-05-31 04:31:00,76.0,72.0,30.20,South,170,8.0,9.0,90,-99.99,,,-99.99,,2013-05-31 08:31:00,
2013-05-31 04:41:00,76.0,72.0,30.20,South,170,8.0,9.0,90,-99.99,,,-99.99,,2013-05-31 08:41:00,
2013-05-31 04:51:00,76.0,72.0,30.20,South,170,8.0,9.0,90,-99.99,,,-99.99,,2013-05-31 08:51:00,
2013-05-31 05:00:00,75.0,73.0,30.20,SE,140,6.0,7.0,91,-99.99,,,-99.99,,2013-05-31 09:00:00,
2013-05-31 05:21:00,75.0,73.0,30.20,SE,140,6.0,7.0,91,-99.99,,,-99.99,,2013-05-31 09:21:00,
2013-05-31 05:32:00,75.0,73.0,30.20,SE,140,6.0,7.0,91,-99.99,,,-99.99,,2013-05-31 09:32:00,
2013-05-31 05:42:00,75.0,73.0,30.20,SE,140,6.0,7.0,91,-99.99,,,-99.99,,2013-05-31 09:42:00,
2013-05-31 05:53:00,75.0,73.0,30.20,SE,140,6.0,7.0,91,-99.99,,,-99.99,,2013-05-31 09:53:00,
2013-05-31 06:00:00,75.0,72.0,30.21,SE,140,5.0,6.0,90,-99.99,,,-99.99,,2013-05-31 10:00:00,
2013-05-31 06:22:00,75.0,72.0,30.21,SE,140,5.0,6.0,90,-99.99,,,-99.99,,2013-05-31 10:22:00,
2013-05-31 06:32:00,75.0,72.0,30.21,SE,140,5.0,6.0,90,-99.99,,,-99.99,,2013-05-31 10:32:00,
2013-05-31 06:42:00,75.0,72.0,30.21,SE,140,5.0,6.0,90,-99.99,,,-99.99,,2013-05-31 10:42:00,
2013-05-31 06:52:00,75.0,72.0,30.21,SE,140,5.0,6.0,90,-99.99,,,-99.99,,2013-05-31 10:52:00,
2013-05-31 07:00:00,75.0,73.0,30.22,ESE,110,8.0,9.0,92,-99.99,,,-99.99,,2013-05-31 11:00:00,
2013-05-31 07:22:00,75.0,73.0,30.22,ESE,110,8.0,9.0,92,-99.99,,,-99.99,,2013-05-31 11:22:00,
2013-05-31 07:32:00,75.0,73.0,30.22,ESE,110,8.0,9.0,92,-99.99,,,-99.99,,2013-05-31 11:32:00,
2013-05-31 07:41:00,75.0,73.0,30.22,ESE,110,8.0,9.0,92,-99.99,,,-99.99,,2013-05-31 11:41:00,
2013-05-31 07:52:00,75.0,73.0,30.22,ESE,110,8.0,9.0,92,-99.99,,,-99.99,,2013-05-31 11:52:00,
2013-05-31 08:00:00,76.0,73.0,30.22,ESE,110,10.0,11.0,91,-99.99,,,-99.99,,2013-05-31 12:00:00,
2013-05-31 08:21:00,76.0,73.0,30.22,ESE,110,10.0,11.0,91,-99.99,,,-99.99,,2013-05-31 12:21:00,
2013-05-31 08:31:00,76.0,73.0,30.22,ESE,110,10.0,11.0,91,-99.99,,,-99.99,,2013-05-31 12:31:00,
2013-05-31 08:41:00,76.0,73.0,30.22,ESE,110,10.0,11.0,91,-99.99,,,-99.99,,2013-05-31 12:41:00,
2013-05-31 08:51:00,76.0,73.0,30.22,ESE,110,10.0,11.0,91,-99.99,,,-99.99,,2013-05-31 12:51:00,
2013-05-31 09:00:00,76.0,73.0,30.24,ESE,120,10.0,10.0,90,-99.99,,,-99.99,,2013-05-31 13:00:00,
2013-05-31 09:21:00,76.0,73.0,30.24,ESE,120,10.0,10.0,90,-99.99,,,-99.99,,2013-05-31 13:21:00,
2013-05-31 09:32:00,76.0,73.0,30.24,ESE,120,10.0,10.0,90,-99.99,,,-99.99,,2013-05-31 13:32:00,
2013-05-31 09:42:00,76.0,73.0,30.24,ESE,120,10.0,10.0,90,-99.99,,,-99.99,,2013-05-31 13:42:00,
2013-05-31 09:51:00,76.0,73.0,30.24,ESE,120,10.0,10.0,90,-99.99,,,-99.99,,2013-05-31 13:51:00,
2013-05-31 10:00:00,76.0,72.0,30.24,ESE,120,8.0,10.0,87,-99.99,,,-99.99,,2013-05-31 14:00:00,
2013-05-31 10:21:00,76.0,72.0,30.24,ESE,120,8.0,10.0,87,-99.99,,,-99.99,,2013-05-31 14:21:00,
2013-05-31 10:31:00,76.0,72.0,30.24,ESE,120,8.0,10.0,87,-99.99,,,-99.99,,2013-05-31 14:31:00,
2013-05-31 10:41:00,76.0,72.0,30.24,ESE,120,8.0,10.0,87,-99.99,,,-99.99,,2013-05-31 14:41:00,
2013-05-31 10:52:00,76.0,72.0,30.24,ESE,120,8.0,10.0,87,-99.99,,,-99.99,,2013-05-31 14:52:00,
2013-05-31 11:00:00,76.0,72.0,30.25,ESE,110,9.0,10.0,84,-99.99,,,-99.99,,2013-05-31 15:00:00,
2013-05-31 11:21:00,76.0,72.0,30.25,ESE,110,9.0,10.0,84,-99.99,,,-99.99,,2013-05-31 15:21:00,
2013-05-31 11:32:00,76.0,72.0,30.25,ESE,110,9.0,10.0,84,-99.99,,,-99.99,,2013-05-31 15:32:00,
2013-05-31 11:42:00,76.0,72.0,30.25,ESE,110,9.0,10.0,84,-99.99,,,-99.99,,2013-05-31 15:42:00,
2013-05-31 11:53:00,76.0,72.0,30.25,ESE,110,9.0,10.0,84,-99.99,,,-99.99,,2013-05-31 15:53:00,
2013-05-31 12:00:00,77.0,71.0,30.25,ESE,110,7.0,8.0,82,-99.99,,,-99.99,,2013-05-31 16:00:00,
2013-05-31 12:22:00,77.0,71.0,30.25,ESE,110,7.0,8.0,82,-99.99,,,-99.99,,2013-05-31 16:22:00,
2013-05-31 12:33:00,77.0,71.0,30.25,ESE,110,7.0,8.0,82,-99.99,,,-99.99,,2013-05-31 16:33:00,
2013-05-31 12:41:00,77.0,71.0,30.25,ESE,110,7.0,8.0,82,-99.99,,,-99.99,,2013-05-31 16:41:00,
2013-05-31 12:52:00,77.0,71.0,30.25,ESE,110,7.0,8.0,82,-99.99,,,-99.99,,2013-05-31 16:52:00,
2013-05-31 13:00:00,78.0,71.0,30.24,ESE,120,8.0,9.0,79,-99.99,,,-99.99,,2013-05-31 17:00:00,
2013-05-31 13:22:00,78.0,71.0,30.24,ESE,120,8.0,9.0,79,-99.99,,,-99.99,,2013-05-31 17:22:00,
2013-05-31 13:31:00,78.0,71.0,30.24,ESE,120,8.0,9.0,79,-99.99,,,-99.99,,2013-05-31 17:31:00,
2013-05-31 13:42:00,78.0,71.0,30.24,ESE,120,8.0,9.0,79,-99.99,,,-99.99,,2013-05-31 17:42:00,
2013-05-31 13:52:00,78.0,71.0,30.24,ESE,120,8.0,9.0,79,-99.99,,,-99.99,,2013-05-31 17:52:00,
2013-05-31 14:00:00,77.0,71.0,30.23,SE,130,9.0,10.0,81,-99.99,,,-99.99,,2013-05-31 18:00:00,
2013-05-31 14:21:00,77.0,71.0,30.23,SE,130,9.0,10.0,81,-99.99,,,-99.99,,2013-05-31 18:21:00,
2013-05-31 14:31:00,77.0,71.0,30.23,SE,130,9.0,10.0,81,-99.99,,,-99.99,,2013-05-31 18:31:00,
2013-05-31 14:41:00,77.0,71.0,30.23,SE,130,9.0,10.0,81,-99.99,,,-99.99,,2013-05-31 18:41:00,
2013-05-31 14:52:00,77.0,71.0,30.23,SE,130,9.0,10.0,81,-99.99,,,-99.99,,2013-05-31 18:52:00,
2013-05-31 15:00:00,77.0,71.0,30.21,SE,130,10.0,13.0,80,-99.99,,,-99.99,,2013-05-31 19:00:00,
2013-05-31 15:21:00,77.0,71.0,30.21,SE,130,10.0,13.0,80,-99.99,,,-99.99,,2013-05-31 19:21:00,
2013-05-31 15:31:00,77.0,71.0,30.21,SE,130,10.0,13.0,80,-99.99,,,-99.99,,2013-05-31 19:31:00,
2013-05-31 15:41:00,77.0,71.0,30.21,SE,130,10.0,13.0,80,-99.99,,,-99.99,,2013-05-31 19:41:00,
2013-05-31 15:52:00,77.0,71.0,30.21,SE,130,10.0,13.0,80,-99.99,,,-99.99,,2013-05-31 19:52:00,
2013-05-31 16:00:00,78.0,72.0,30.20,SE,140,11.0,11.0,82,-99.99,,,-99.99,,2013-05-31 20:00:00,
2013-05-31 16:22:00,78.0,72.0,30.20,SE,140,11.0,11.0,82,-99.99,,,-99.99,,2013-05-31 20:22:00,
2013-05-31 16:31:00,78.0,72.0,30.20,SE,140,11.0,11.0,82,-99.99,,,-99.99,,2013-05-31 20:31:00,
2013-05-31 16:41:00,78.0,72.0,30.20,SE,140,11.0,11.0,82,-99.99,,,-99.99,,2013-05-31 20:41:00,
2013-05-31 16:51:00,78.0,72.0,30.20,SE,140,11.0,11.0,82,-99.99,,,-99.99,,2013-05-31 20:51:00,
2013-05-31 17:00:00,77.0,71.0,30.18,SE,140,11.0,13.0,81,-99.99,,,-99.99,,2013-05-31 21:00:00,
2013-05-31 17:22:00,77.0,71.0,30.18,SE,140,11.0,13.0,81,-99.99,,,-99.99,,2013-05-31 21:22:00,
2013-05-31 17:32:00,77.0,71.0,30.18,SE,140,11.0,13.0,81,-99.99,,,-99.99,,2013-05-31 21:32:00,
2013-05-31 17:42:00,77.0,71.0,30.18,SE,140,11.0,13.0,81,-99.99,,,-99.99,,2013-05-31 21:42:00,
2013-05-31 17:53:00,77.0,71.0,30.18,SE,140,11.0,13.0,81,-99.99,,,-99.99,,2013-05-31 21:53:00,
2013-05-31 18:00:00,77.0,71.0,30.18,SSE,150,10.0,11.0,82,-99.99,,,-99.99,,2013-05-31 22:00:00,
2013-05-31 18:22:00,77.0,71.0,30.18,SSE,150,10.0,11.0,82,-99.99,,,-99.99,,2013-05-31 22:22:00,
2013-05-31 18:33:00,77.0,71.0,30.18,SSE,150,10.0,11.0,82,-99.99,,,-99.99,,2013-05-31 22:33:00,
2013-05-31 18:41:00,77.0,71.0,30.18,SSE,150,10.0,11.0,82,-99.99,,,-99.99,,2013-05-31 22:41:00,
2013-05-31 18:52:00,77.0,71.0,30.18,SSE,150,10.0,11.0,82,-99.99,,,-99.99,,2013-05-31 22:52:00,
2013-05-31 19:00:00,77.0,71.0,30.17,SE,140,11.0,13.0,81,-99.99,,,-99.99,,2013-05-31 23:00:00,
2013-05-31 19:21:00,77.0,71.0,30.17,SE,140,11.0,13.0,81,-99.99,,,-99.99,,2013-05-31 23:21:00,
2013-05-31 19:32:00,77.0,71.0,30.17,SE,140,11.0,13.0,81,-99.99,,,-99.99,,2013-05-31 23:32:00,
2013-05-31 19:42:00,77.0,71.0,30.17,SE,140,11.0,13.0,81,-99.99,,,-99.99,,2013-05-31 23:42:00,
2013-05-31 19:52:00,77.0,71.0,30.17,SE,140,11.0,13.0,81,-99.99,,,-99.99,,2013-05-31 23:52:00,
2013-05-31 20:00:00,77.0,71.0,30.17,SSE,150,11.0,14.0,82,-99.99,,,-99.99,,2013-06-01 00:00:00,
2013-05-31 20:21:00,77.0,71.0,30.17,SSE,150,11.0,14.0,82,-99.99,,,-99.99,,2013-06-01 00:21:00,
2013-05-31 20:31:00,77.0,71.0,30.17,SSE,150,11.0,14.0,82,-99.99,,,-99.99,,2013-06-01 00:31:00,
2013-05-31 20:41:00,77.0,71.0,30.17,SSE,150,11.0,14.0,82,-99.99,,,-99.99,,2013-06-01 00:41:00,
2013-05-31 20:51:00,77.0,71.0,30.17,SSE,150,11.0,14.0,82,-99.99,,,-99.99,,2013-06-01 00:51:00,
2013-05-31 21:00:00,76.0,71.0,30.18,SSE,150,13.0,14.0,84,-99.99,,,-99.99,,2013-06-01 01:00:00,
2013-05-31 21:21:00,76.0,71.0,30.18,SSE,150,13.0,14.0,84,-99.99,,,-99.99,,2013-06-01 01:21:00,
2013-05-31 21:31:00,76.0,71.0,30.18,SSE,150,13.0,14.0,84,-99.99,,,-99.99,,2013-06-01 01:31:00,
2013-05-31 21:41:00,76.0,71.0,30.18,SSE,150,13.0,14.0,84,-99.99,,,-99.99,,2013-06-01 01:41:00,
2013-05-31 21:52:00,76.0,71.0,30.18,SSE,150,13.0,14.0,84,-99.99,,,-99.99,,2013-06-01 01:52:00,
2013-05-31 22:00:00,76.0,72.0,30.19,SSE,160,13.0,15.0,85,-99.99,,,-99.99,,2013-06-01 02:00:00,
2013-05-31 22:21:00,76.0,72.0,30.19,SSE,160,13.0,15.0,85,-99.99,,,-99.99,,2013-06-01 02:21:00,
2013-05-31 22:31:00,76.0,72.0,30.19,SSE,160,13.0,15.0,85,-99.99,,,-99.99,,2013-06-01 02:31:00,
2013-05-31 22:41:00,76.0,72.0,30.19,SSE,160,13.0,15.0,85,-99.99,,,-99.99,,2013-06-01 02:41:00,
2013-05-31 22:51:00,76.0,72.0,30.19,SSE,160,13.0,15.0,85,-99.99,,,-99.99,,2013-06-01 02:51:00,
2013-05-31 23:00:00,76.0,72.0,30.19,SSE,160,11.0,13.0,84,-99.99,,,-99.99,,2013-06-01 03:00:00,
2013-05-31 23:21:00,76.0,72.0,30.19,SSE,160,11.0,13.0,84,-99.99,,,-99.99,,2013-06-01 03:21:00,
2013-05-31 23:33:00,76.0,72.0,30.19,SSE,160,11.0,13.0,84,-99.99,,,-99.99,,2013-06-01 03:33:00,
2013-05-31 23:43:00,76.0,72.0,30.19,SSE,160,11.0,13.0,84,-99.99,,,-99.99,,2013-06-01 03:43:00,
2013-05-31 23:53:00,76.0,72.0,30.19,SSE,160,11.0,13.0,84,-99.99,,,-99.99,,2013-06-01 03:53:00,